Hauptseite
METAR-TAF:

METAR-TAF

Flughäfen :

Flugplatz Les Eplatures

La Chaux-de-Fonds, Schweiz

Breite: 47-05-03N, Länge: 006-47-37E, Höhe: 1027 m

Beobachtung

Neuester Wetterbericht von vor 33 Minuten, um 07:50 UTC
Wind 6 kt aus Süd/Südwest, variierte zwischen Süd und West/Südwest
Temperatur 16°C
Luftfeuchtigkeit 59%
Luftdruck 1027 hPa
Sichtweite 10 km oder mehr
keine Wolken unter 1500 m und keine Kumulonimbus oder Gewitterwolken

METAR: LSGC 140750Z AUTO 21006KT 180V250 CAVOK 16/08 Q1027

Zeit: 10:23 (08:23 UTC)

Prognose

Neuester Wetterbericht von vor 2 Stunden und 58 Minuten, um 05:25 UTC
Gültige Prognose vom 14 um 06 UTC bis 14 um 15 UTC
Wind 2 kt aus unterschiedlichen Richtungen
Sichtweite 10 km oder mehr
keine Wolken unter 1500 m und keine Kumulonimbus oder Gewitterwolken
Übergehend zu
vom 14 um 09 UTC bis 14 um 11 UTC
Wind 10 kt aus West/Südwest

TAF: LSGC 140525Z 1406/1415 VRB02KT CAVOK BECMG 1409/1411 25010KT

Wetterbeobachtungen und Prognosen von mehr als 4000 Flughäfen (METAR und TAF Bericht).

Die verfügbaren Stationen werden durch gelbe und rote Markierungen auf der Karte dargestellt.

Führen Sie die Maus auf sie, um den Namen der Station zu sehen.

Darauf klicken, um die Beobachtung von Wetterbeobachtungen und Prognosen zu sehen.

Um die Karte zu ändern : klicken Sie auf den grünen Tasten mit einem schwarzen Kreuz Zum Vergrößern, auf den grünen Button mit einem Gedankenstrich zu verkleinern, oder auf die grünen Pfeile für benachbarte Karten.


METAR-TAF: